createdAt,value
2022-11-10T00:00:31.792Z,86.38
2022-11-10T00:02:33.256Z,82.70
2022-11-10T00:04:34.736Z,89.60
2022-11-10T00:06:36.472Z,80.25
2022-11-10T00:08:38.212Z,70.03
2022-11-10T00:10:57.111Z,78.55
2022-11-10T00:13:02.874Z,87.88
2022-11-10T00:15:23.850Z,84.50
2022-11-10T00:17:25.376Z,75.40
2022-11-10T00:19:28.184Z,188.10
2022-11-10T00:21:29.699Z,73.15
2022-11-10T00:23:31.196Z,118.40
2022-11-10T00:25:32.995Z,116.45
2022-11-10T00:27:34.940Z,98.10
2022-11-10T00:29:36.415Z,100.18
2022-11-10T00:31:38.999Z,93.57
2022-11-10T00:33:44.453Z,92.90
2022-11-10T00:35:45.938Z,273.08
2022-11-10T00:37:49.395Z,76.82
2022-11-10T00:39:51.110Z,126.30
2022-11-10T00:41:52.687Z,89.57
2022-11-10T00:43:54.172Z,91.18
2022-11-10T00:45:55.685Z,91.70
2022-11-10T00:47:57.130Z,90.05
2022-11-10T00:49:58.687Z,75.13
2022-11-10T00:52:00.162Z,92.07
2022-11-10T00:54:01.713Z,89.18
2022-11-10T00:56:03.192Z,78.32
2022-11-10T00:58:05.027Z,87.25
2022-11-10T01:00:07.270Z,96.97
2022-11-10T01:02:08.717Z,101.22
2022-11-10T01:04:10.338Z,91.93
2022-11-10T01:06:14.559Z,94.28
2022-11-10T01:08:15.992Z,106.68
2022-11-10T01:10:17.596Z,91.63
2022-11-10T01:12:19.095Z,78.45
2022-11-10T01:14:20.576Z,83.97
2022-11-10T01:16:28.218Z,104.55
2022-11-10T01:18:29.701Z,78.95
2022-11-10T01:20:33.310Z,140.30
2022-11-10T01:22:35.447Z,94.20
2022-11-10T01:24:37.005Z,80.80
2022-11-10T01:26:38.485Z,81.60
2022-11-10T01:28:40.358Z,86.60
2022-11-10T01:30:41.993Z,78.50
2022-11-10T01:32:43.703Z,89.50
2022-11-10T01:34:45.191Z,71.38
2022-11-10T01:36:46.724Z,68.82
2022-11-10T01:38:48.204Z,68.38
2022-11-10T01:40:49.875Z,67.78
2022-11-10T01:42:54.547Z,83.00
2022-11-10T01:45:23.955Z,76.82
2022-11-10T01:47:25.799Z,73.20
2022-11-10T01:49:32.296Z,79.97
2022-11-10T01:51:56.645Z,77.15
2022-11-10T01:54:11.905Z,67.85
2022-11-10T01:56:15.178Z,116.68
2022-11-10T01:58:21.619Z,78.68
2022-11-10T02:00:23.760Z,80.43
2022-11-10T02:02:30.604Z,71.13
2022-11-10T02:04:33.059Z,111.15
2022-11-10T02:06:38.562Z,66.15
2022-11-10T02:08:42.216Z,59.63
2022-11-10T02:10:44.463Z,67.88
2022-11-10T02:12:47.364Z,62.10
2022-11-10T02:14:48.827Z,60.35
2022-11-10T02:16:50.418Z,51.50
2022-11-10T02:18:52.443Z,56.72
2022-11-10T02:20:54.159Z,53.08
2022-11-10T02:22:55.697Z,56.38
2022-11-10T02:24:58.181Z,60.42
2022-11-10T02:26:59.828Z,55.95
2022-11-10T02:29:01.371Z,53.63
2022-11-10T02:31:03.846Z,59.63
2022-11-10T02:33:05.355Z,55.05
2022-11-10T02:35:07.610Z,53.22
2022-11-10T02:37:12.291Z,51.45
2022-11-10T02:39:13.766Z,51.55
2022-11-10T02:41:15.285Z,53.10
2022-11-10T02:43:18.701Z,50.75
2022-11-10T02:45:20.366Z,52.22
2022-11-10T02:47:21.908Z,53.25
2022-11-10T02:49:23.486Z,55.63
2022-11-10T02:51:25.083Z,50.33
2022-11-10T02:53:26.649Z,55.97
2022-11-10T02:55:28.297Z,51.17
2022-11-10T02:57:29.743Z,51.75
2022-11-10T02:59:31.228Z,48.85
2022-11-10T03:01:32.917Z,47.13
2022-11-10T03:03:34.837Z,49.00
2022-11-10T03:05:36.368Z,47.15
2022-11-10T03:07:38.140Z,50.63
2022-11-10T03:09:39.626Z,49.33
2022-11-10T03:11:41.184Z,45.63
2022-11-10T03:14:00.501Z,50.00
2022-11-10T03:16:02.777Z,48.95
2022-11-10T03:18:05.003Z,52.17
2022-11-10T03:20:06.956Z,48.28
2022-11-10T03:22:08.444Z,51.10
2022-11-10T03:24:10.155Z,52.60
2022-11-10T03:26:11.657Z,47.90
2022-11-10T03:28:13.786Z,46.90
2022-11-10T03:30:15.327Z,49.45
2022-11-10T03:32:16.878Z,44.05
2022-11-10T03:34:18.743Z,52.55
2022-11-10T03:36:20.277Z,47.40
2022-11-10T03:38:21.823Z,52.08
2022-11-10T03:40:23.295Z,46.63
2022-11-10T03:42:24.754Z,51.00
2022-11-10T03:44:26.287Z,50.30
2022-11-10T03:46:27.779Z,48.80
2022-11-10T03:48:29.267Z,50.85
2022-11-10T03:50:30.754Z,50.55
2022-11-10T03:52:33.182Z,53.42
2022-11-10T03:54:34.655Z,48.50
2022-11-10T03:56:36.123Z,51.95
2022-11-10T03:58:37.912Z,48.67
2022-11-10T04:00:39.419Z,50.72
2022-11-10T04:02:40.956Z,52.83
2022-11-10T04:05:00.830Z,51.72
2022-11-10T04:09:22.344Z,50.47
2022-11-10T04:11:44.151Z,44.05
2022-11-10T04:14:04.047Z,47.25
2022-11-10T04:18:21.769Z,47.97
2022-11-10T04:20:23.221Z,45.05
2022-11-10T04:22:43.044Z,48.25
2022-11-10T04:26:47.530Z,46.78
2022-11-10T04:28:52.058Z,47.67
2022-11-10T04:30:53.556Z,47.22
2022-11-10T04:32:55.123Z,52.75
2022-11-10T04:34:59.235Z,51.55
2022-11-10T04:37:00.698Z,50.90
2022-11-10T04:39:02.565Z,45.33
2022-11-10T04:41:04.211Z,52.10
2022-11-10T04:43:05.741Z,46.92
2022-11-10T04:45:07.459Z,47.05
2022-11-10T04:47:11.832Z,47.28
2022-11-10T04:49:13.823Z,50.30
2022-11-10T04:51:15.780Z,98.70
2022-11-10T04:53:17.640Z,153.95
2022-11-10T04:55:19.149Z,153.18
2022-11-10T04:57:20.619Z,145.95
2022-11-10T04:59:22.181Z,115.63
2022-11-10T05:01:26.416Z,94.72
2022-11-10T05:03:27.982Z,71.25
2022-11-10T05:05:29.663Z,65.88
2022-11-10T05:07:31.171Z,57.50
2022-11-10T05:09:32.916Z,64.57
2022-11-10T05:11:34.404Z,57.97
2022-11-10T05:13:35.857Z,61.30
2022-11-10T05:15:40.046Z,66.15
2022-11-10T05:17:41.512Z,65.57
2022-11-10T05:19:42.964Z,66.10
2022-11-10T05:21:44.468Z,65.07
2022-11-10T05:23:46.635Z,82.18
2022-11-10T05:25:48.708Z,86.68
2022-11-10T05:27:50.175Z,86.90
2022-11-10T05:29:51.630Z,78.40
2022-11-10T05:31:53.131Z,79.88
2022-11-10T05:33:54.646Z,85.57
2022-11-10T05:35:56.547Z,95.85
2022-11-10T05:37:58.228Z,95.05
2022-11-10T05:39:59.747Z,87.95
2022-11-10T05:42:01.249Z,92.30
2022-11-10T05:44:02.730Z,95.57
2022-11-10T05:46:04.334Z,96.20
2022-11-10T05:48:06.024Z,105.93
2022-11-10T05:50:08.825Z,100.47
2022-11-10T05:52:10.355Z,107.53
2022-11-10T05:54:11.875Z,118.68
2022-11-10T05:56:13.347Z,121.05
2022-11-10T05:58:15.191Z,115.00
2022-11-10T06:00:21.365Z,130.95
2022-11-10T06:02:22.879Z,120.70
2022-11-10T06:04:24.659Z,117.32
2022-11-10T06:06:26.142Z,118.35
2022-11-10T06:08:27.637Z,125.30
2022-11-10T06:10:29.447Z,137.63
2022-11-10T06:12:30.965Z,124.80
2022-11-10T06:14:32.501Z,135.27
2022-11-10T06:16:33.971Z,125.93
2022-11-10T06:18:35.431Z,125.38
2022-11-10T06:20:36.964Z,124.95
2022-11-10T06:22:38.677Z,133.60
2022-11-10T06:24:40.147Z,130.20
2022-11-10T06:26:41.684Z,134.45
2022-11-10T06:28:43.258Z,140.48
2022-11-10T06:30:44.783Z,135.82
2022-11-10T06:32:46.429Z,126.85
2022-11-10T06:34:47.888Z,116.95
2022-11-10T06:36:49.375Z,117.57
2022-11-10T06:38:50.977Z,117.80
2022-11-10T06:40:52.447Z,118.15
2022-11-10T06:42:54.018Z,110.88
2022-11-10T06:44:55.695Z,127.65
2022-11-10T06:46:57.175Z,127.85
2022-11-10T06:48:58.651Z,135.40
2022-11-10T06:51:01.123Z,133.65
2022-11-10T06:53:02.743Z,127.65
2022-11-10T06:55:04.663Z,125.10
2022-11-10T06:57:06.247Z,124.40
2022-11-10T06:59:07.707Z,140.13
2022-11-10T07:01:09.293Z,136.15
2022-11-10T07:03:13.484Z,136.52
2022-11-10T07:05:15.513Z,127.10
2022-11-10T07:07:17.169Z,126.03
2022-11-10T07:09:18.880Z,130.48
2022-11-10T07:11:20.404Z,128.57
2022-11-10T07:13:23.247Z,130.45
2022-11-10T07:15:25.046Z,143.50
2022-11-10T07:17:26.596Z,136.82
2022-11-10T07:19:28.103Z,143.85
2022-11-10T07:21:29.849Z,148.32
2022-11-10T07:23:33.580Z,137.35
2022-11-10T07:25:36.771Z,144.38
2022-11-10T07:27:38.335Z,139.88
2022-11-10T07:29:40.127Z,146.75
2022-11-10T07:31:41.597Z,140.13
2022-11-10T07:33:44.114Z,145.35
2022-11-10T07:35:53.051Z,161.20
2022-11-10T07:37:55.668Z,105.03
2022-11-10T07:39:57.247Z,134.98
2022-11-10T07:41:58.730Z,130.40
2022-11-10T07:44:00.215Z,126.80
2022-11-10T07:46:01.653Z,129.18
2022-11-10T07:48:05.681Z,122.55
2022-11-10T07:50:07.779Z,113.85
2022-11-10T07:52:09.260Z,119.47
2022-11-10T07:54:10.839Z,133.65
2022-11-10T07:56:12.377Z,128.65
2022-11-10T07:58:16.230Z,124.63
2022-11-10T08:00:18.372Z,125.75
2022-11-10T08:02:19.833Z,139.80
2022-11-10T08:04:21.281Z,131.68
2022-11-10T08:06:23.089Z,119.72
2022-11-10T08:08:24.755Z,113.78
2022-11-10T08:10:27.710Z,126.75
2022-11-10T08:12:32.711Z,121.82
2022-11-10T08:14:35.267Z,109.57
2022-11-10T08:16:36.750Z,111.63
2022-11-10T08:18:38.221Z,123.57
2022-11-10T08:20:39.724Z,109.25
2022-11-10T08:22:42.888Z,105.00
2022-11-10T08:24:44.524Z,95.45
2022-11-10T08:26:46.286Z,112.75
2022-11-10T08:28:48.091Z,121.32
2022-11-10T08:30:49.956Z,94.25
2022-11-10T08:32:54.399Z,102.93
2022-11-10T08:34:55.958Z,95.90
2022-11-10T08:36:57.489Z,109.93
2022-11-10T08:38:58.972Z,93.82
2022-11-10T08:41:00.467Z,94.82
2022-11-10T08:43:03.498Z,93.50
2022-11-10T08:45:05.402Z,104.50
2022-11-10T08:47:06.916Z,96.60
2022-11-10T08:49:08.426Z,101.60
2022-11-10T08:51:10.004Z,97.35
2022-11-10T08:53:14.620Z,92.15
2022-11-10T08:55:16.207Z,82.88
2022-11-10T08:57:17.679Z,85.35
2022-11-10T08:59:19.192Z,75.40
2022-11-10T09:01:21.298Z,81.75
2022-11-10T09:03:24.951Z,90.15
2022-11-10T09:05:26.699Z,85.75
2022-11-10T09:07:28.214Z,67.00
2022-11-10T09:09:29.725Z,74.68
2022-11-10T09:11:31.277Z,69.30
2022-11-10T09:13:33.020Z,68.95
2022-11-10T09:15:35.588Z,64.88
2022-11-10T09:17:38.184Z,69.10
2022-11-10T09:19:39.797Z,61.25
2022-11-10T09:21:41.332Z,60.33
2022-11-10T09:23:42.848Z,57.90
2022-11-10T09:25:52.447Z,55.83
2022-11-10T09:27:53.941Z,61.17
2022-11-10T09:29:55.551Z,60.95
2022-11-10T09:31:57.028Z,54.72
2022-11-10T09:33:59.321Z,52.03
2022-11-10T09:36:02.138Z,45.10
2022-11-10T09:38:03.768Z,43.45
2022-11-10T09:40:08.136Z,47.45
2022-11-10T09:42:27.706Z,55.00
2022-11-10T09:44:55.067Z,50.35
2022-11-10T09:49:57.629Z,45.15
2022-11-10T09:52:00.395Z,53.97
2022-11-10T09:54:19.886Z,46.78
2022-11-10T09:56:35.513Z,42.70
2022-11-10T09:58:45.808Z,43.30
2022-11-10T10:01:03.964Z,36.55
2022-11-10T10:03:06.306Z,37.20
2022-11-10T10:05:35.636Z,45.60
2022-11-10T10:07:45.088Z,36.78
2022-11-10T10:10:02.537Z,35.83
2022-11-10T10:12:18.242Z,43.20
2022-11-10T10:14:25.537Z,49.60
2022-11-10T10:16:44.754Z,45.33
2022-11-10T10:19:11.087Z,43.33
2022-11-10T10:21:27.899Z,47.92
2022-11-10T10:24:07.797Z,42.10
2022-11-10T10:26:00.783Z,60.35
2022-11-10T10:28:30.520Z,52.28
2022-11-10T10:30:32.075Z,46.35
2022-11-10T10:32:33.566Z,40.25
2022-11-10T10:34:36.234Z,40.75
2022-11-10T10:36:38.304Z,43.38
2022-11-10T10:38:40.456Z,47.45
2022-11-10T10:40:50.524Z,72.40
2022-11-10T10:42:52.088Z,74.55
2022-11-10T10:45:21.175Z,41.88
2022-11-10T10:47:36.541Z,40.72
2022-11-10T10:49:37.997Z,39.40
2022-11-10T10:51:39.524Z,34.55
2022-11-10T10:53:48.171Z,37.38
2022-11-10T10:56:05.435Z,42.13
2022-11-10T10:58:31.501Z,38.03
2022-11-10T11:00:43.277Z,35.30
2022-11-10T11:03:04.499Z,40.50
2022-11-10T11:05:09.628Z,45.38
2022-11-10T11:07:23.715Z,46.20
2022-11-10T11:09:27.918Z,39.90
2022-11-10T11:11:35.556Z,46.70
2022-11-10T11:13:37.278Z,36.38
2022-11-10T11:15:38.739Z,40.10
2022-11-10T11:17:40.353Z,45.00
2022-11-10T11:19:42.273Z,42.42
2022-11-10T11:22:13.067Z,48.92
2022-11-10T11:24:51.364Z,35.63
2022-11-10T11:27:04.469Z,33.15
2022-11-10T11:29:05.916Z,32.55
2022-11-10T11:31:42.709Z,32.40
2022-11-10T11:34:10.970Z,32.28
2022-11-10T11:36:20.948Z,36.58
2022-11-10T11:40:58.096Z,32.67
2022-11-10T11:43:27.144Z,36.40
2022-11-10T11:45:39.439Z,30.90
2022-11-10T11:48:01.375Z,37.33
2022-11-10T11:50:22.403Z,38.38
2022-11-10T11:52:39.313Z,29.83
2022-11-10T11:55:22.505Z,31.67
2022-11-10T11:57:42.557Z,25.40
2022-11-10T12:00:08.188Z,23.55
2022-11-10T12:02:30.423Z,23.23
2022-11-10T12:04:42.877Z,24.02
2022-11-10T12:07:26.986Z,22.50
2022-11-10T12:09:50.472Z,22.30
2022-11-10T12:12:07.123Z,20.60
2022-11-10T12:14:34.323Z,21.20
2022-11-10T12:16:36.787Z,24.02
2022-11-10T12:18:49.515Z,19.95
2022-11-10T12:21:19.832Z,16.05
2022-11-10T12:25:40.460Z,19.45
2022-11-10T12:27:49.461Z,17.10
2022-11-10T12:29:56.964Z,18.03
2022-11-10T12:32:27.592Z,18.17
2022-11-10T12:34:42.779Z,20.33
2022-11-10T12:36:45.879Z,17.50
2022-11-10T12:38:47.460Z,22.55
2022-11-10T12:40:51.912Z,32.60
2022-11-10T12:43:02.056Z,23.15
2022-11-10T12:45:16.410Z,18.30
2022-11-10T12:47:21.767Z,17.13
2022-11-10T12:49:32.529Z,15.82
2022-11-10T12:52:21.416Z,14.48
2022-11-10T12:54:26.264Z,13.73
2022-11-10T12:56:40.729Z,13.77
2022-11-10T12:58:42.306Z,16.15
2022-11-10T13:00:59.445Z,17.35
2022-11-10T13:03:01.068Z,11.63
2022-11-10T13:05:19.533Z,12.55
2022-11-10T13:07:24.537Z,10.73
2022-11-10T13:09:41.688Z,13.43
2022-11-10T13:12:05.267Z,11.77
2022-11-10T13:14:22.573Z,14.02
2022-11-10T13:16:40.398Z,13.70
2022-11-10T13:18:41.803Z,10.57
2022-11-10T13:20:54.035Z,11.95
2022-11-10T13:22:55.556Z,11.52
2022-11-10T13:25:34.472Z,11.95
2022-11-10T13:27:35.972Z,8.48
2022-11-10T13:29:43.526Z,12.13
2022-11-10T13:31:54.531Z,11.00
2022-11-10T13:34:32.887Z,9.63
2022-11-10T13:36:39.311Z,7.72
2022-11-10T13:38:42.848Z,15.60
2022-11-10T13:40:44.776Z,7.68
2022-11-10T13:42:58.461Z,9.25
2022-11-10T13:45:27.945Z,10.25
2022-11-10T13:47:45.008Z,11.50
2022-11-10T13:49:57.041Z,10.90
2022-11-10T13:52:28.814Z,8.73
2022-11-10T13:54:36.407Z,7.78
2022-11-10T13:57:08.759Z,13.55
2022-11-10T13:59:22.647Z,9.88
2022-11-10T14:01:28.151Z,10.60
2022-11-10T14:03:48.097Z,12.73
2022-11-10T14:06:09.107Z,13.88
2022-11-10T14:08:23.914Z,11.23
2022-11-10T14:11:02.004Z,11.20
2022-11-10T14:13:18.954Z,10.48
2022-11-10T14:15:37.533Z,11.35
2022-11-10T14:17:48.388Z,12.70
2022-11-10T14:19:49.974Z,11.10
2022-11-10T14:22:03.429Z,14.73
2022-11-10T14:24:37.231Z,13.52
2022-11-10T14:26:51.812Z,17.48
2022-11-10T14:28:53.279Z,24.08
2022-11-10T14:30:55.799Z,16.70
2022-11-10T14:33:03.980Z,15.30
2022-11-10T14:35:06.772Z,17.15
2022-11-10T14:37:18.303Z,24.25
2022-11-10T14:39:25.339Z,21.98
2022-11-10T14:41:27.076Z,18.60
2022-11-10T14:43:39.221Z,20.88
2022-11-10T14:45:50.831Z,32.72
2022-11-10T14:47:54.908Z,25.10
2022-11-10T14:50:16.699Z,36.58
2022-11-10T14:52:18.261Z,412.60
2022-11-10T14:54:25.016Z,498.73
2022-11-10T14:56:36.878Z,445.52
2022-11-10T14:58:41.096Z,365.73
2022-11-10T15:00:44.518Z,110.88
2022-11-10T15:02:46.142Z,164.10
2022-11-10T15:04:50.979Z,203.73
2022-11-10T15:06:54.864Z,423.20
2022-11-10T15:08:56.451Z,245.15
2022-11-10T15:10:58.200Z,204.35
2022-11-10T15:13:02.094Z,468.90
2022-11-10T15:15:18.528Z,273.35
2022-11-10T15:17:20.238Z,1144.97
2022-11-10T15:19:30.632Z,502.95
2022-11-10T15:21:34.164Z,610.60
2022-11-10T15:23:40.873Z,553.20
2022-11-10T15:25:42.462Z,779.97
2022-11-10T15:28:15.184Z,351.85
2022-11-10T15:30:25.333Z,446.95
2022-11-10T15:32:41.875Z,276.55
2022-11-10T15:34:45.743Z,143.15
2022-11-10T15:36:47.372Z,230.40
2022-11-10T15:39:02.169Z,304.15
2022-11-10T15:41:26.618Z,256.10
2022-11-10T15:43:28.844Z,116.28
2022-11-10T15:45:30.327Z,88.22
2022-11-10T15:47:32.066Z,92.50
2022-11-10T15:49:38.066Z,130.00
2022-11-10T15:51:39.580Z,176.23
2022-11-10T15:53:44.316Z,352.33
2022-11-10T15:55:45.941Z,231.52
2022-11-10T15:57:47.451Z,222.95
2022-11-10T15:59:48.920Z,184.32
2022-11-10T16:01:50.795Z,152.80
2022-11-10T16:03:52.416Z,143.93
2022-11-10T16:05:53.969Z,161.68
2022-11-10T16:07:55.455Z,208.60
2022-11-10T16:09:56.956Z,196.73
2022-11-10T16:11:58.767Z,266.25
2022-11-10T16:14:01.905Z,180.20
2022-11-10T16:16:03.667Z,128.30
2022-11-10T16:18:13.957Z,93.15
2022-11-10T16:20:15.676Z,170.88
2022-11-10T16:22:17.177Z,223.07
2022-11-10T16:24:18.671Z,244.80
2022-11-10T16:26:23.332Z,327.38
2022-11-10T16:28:27.015Z,353.10
2022-11-10T16:30:28.752Z,225.20
2022-11-10T16:32:30.229Z,274.60
2022-11-10T16:34:31.734Z,270.90
2022-11-10T16:36:34.316Z,172.57
2022-11-10T16:38:35.808Z,133.68
2022-11-10T16:40:37.608Z,104.32
2022-11-10T16:42:39.096Z,90.53
2022-11-10T16:44:42.586Z,80.82
2022-11-10T16:46:47.518Z,151.35
2022-11-10T16:48:52.608Z,86.65
2022-11-10T16:50:57.588Z,101.75
2022-11-10T16:53:01.994Z,86.03
2022-11-10T16:55:03.989Z,84.07
2022-11-10T16:57:16.089Z,75.78
2022-11-10T16:59:17.566Z,89.72
2022-11-10T17:01:29.697Z,201.70
2022-11-10T17:03:42.133Z,125.60
2022-11-10T17:05:44.007Z,98.55
2022-11-10T17:07:45.620Z,114.32
2022-11-10T17:09:47.074Z,90.75
2022-11-10T17:11:48.588Z,130.88
2022-11-10T17:13:50.032Z,120.38
2022-11-10T17:16:05.322Z,136.40
2022-11-10T17:18:07.306Z,202.98
2022-11-10T17:20:18.291Z,226.18
2022-11-10T17:22:21.588Z,154.80
2022-11-10T17:24:23.771Z,137.85
2022-11-10T17:26:25.264Z,214.38
2022-11-10T17:28:26.757Z,111.40
2022-11-10T17:30:28.498Z,123.35
2022-11-10T17:33:02.565Z,106.45
2022-11-10T17:34:51.491Z,153.55
2022-11-10T17:36:52.977Z,100.28
2022-11-10T17:38:54.495Z,109.20
2022-11-10T17:40:56.237Z,72.57
2022-11-10T17:42:57.698Z,122.50
2022-11-10T17:44:59.213Z,199.38
2022-11-10T17:47:00.659Z,226.50
2022-11-10T17:49:03.323Z,236.85
2022-11-10T17:51:09.847Z,216.35
2022-11-10T17:53:25.151Z,208.23
2022-11-10T17:55:33.790Z,117.90
2022-11-10T17:57:35.827Z,80.95
2022-11-10T17:59:37.333Z,86.47
2022-11-10T18:01:38.965Z,86.28
2022-11-10T18:03:40.650Z,78.63
2022-11-10T18:05:42.792Z,132.18
2022-11-10T18:07:44.705Z,133.88
2022-11-10T18:09:47.093Z,166.38
2022-11-10T18:11:48.574Z,129.57
2022-11-10T18:13:50.153Z,146.18
2022-11-10T18:15:54.331Z,95.95
2022-11-10T18:18:00.047Z,72.57
2022-11-10T18:20:03.661Z,73.90
2022-11-10T18:22:05.187Z,87.95
2022-11-10T18:24:06.772Z,78.95
2022-11-10T18:26:09.053Z,86.25
2022-11-10T18:28:14.368Z,81.63
2022-11-10T18:30:17.061Z,90.32
2022-11-10T18:32:18.562Z,58.67
2022-11-10T18:34:20.155Z,76.20
2022-11-10T18:36:21.898Z,130.70
2022-11-10T18:38:23.366Z,236.55
2022-11-10T18:40:25.207Z,186.55
2022-11-10T18:42:28.672Z,163.63
2022-11-10T18:44:30.927Z,144.70
2022-11-10T18:46:32.447Z,155.55
2022-11-10T18:48:37.281Z,132.65
2022-11-10T18:50:39.247Z,174.50
2022-11-10T18:52:40.739Z,167.30
2022-11-10T18:54:42.296Z,153.25
2022-11-10T18:56:43.798Z,136.13
2022-11-10T18:58:51.177Z,127.22
2022-11-10T19:01:08.915Z,122.60
2022-11-10T19:03:10.564Z,119.10
2022-11-10T19:05:12.019Z,109.70
2022-11-10T19:07:13.585Z,110.50
2022-11-10T19:09:15.279Z,118.78
2022-11-10T19:11:19.104Z,136.00
2022-11-10T19:13:21.289Z,143.73
2022-11-10T19:15:22.912Z,158.70
2022-11-10T19:17:24.447Z,228.55
2022-11-10T19:19:25.987Z,290.73
2022-11-10T19:21:27.786Z,218.77
2022-11-10T19:23:29.259Z,277.48
2022-11-10T19:25:31.257Z,209.32
2022-11-10T19:27:32.798Z,140.35
2022-11-10T19:29:34.327Z,155.45
2022-11-10T19:31:35.791Z,143.18
2022-11-10T19:33:40.414Z,148.32
2022-11-10T19:35:42.472Z,232.40
2022-11-10T19:37:44.437Z,183.38
2022-11-10T19:39:46.025Z,121.75
2022-11-10T19:41:47.569Z,140.00
2022-11-10T19:43:49.099Z,205.93
2022-11-10T19:45:50.894Z,154.85
2022-11-10T19:47:52.355Z,180.52
2022-11-10T19:49:53.808Z,166.07
2022-11-10T19:51:55.630Z,134.50
2022-11-10T19:54:01.525Z,134.50
2022-11-10T19:56:06.078Z,103.70
2022-11-10T19:58:08.468Z,96.75
2022-11-10T20:00:12.459Z,106.38
2022-11-10T20:02:13.951Z,118.43
2022-11-10T20:04:15.500Z,107.28
2022-11-10T20:06:21.279Z,103.57
2022-11-10T20:08:22.759Z,127.22
2022-11-10T20:10:24.353Z,99.30
2022-11-10T20:12:25.835Z,98.10
2022-11-10T20:14:27.881Z,81.63
2022-11-10T20:16:29.426Z,87.97
2022-11-10T20:18:31.155Z,84.30
2022-11-10T20:20:32.700Z,100.78
2022-11-10T20:22:34.296Z,123.55
2022-11-10T20:24:36.137Z,95.80
2022-11-10T20:26:37.657Z,111.00
2022-11-10T20:28:40.535Z,84.13
2022-11-10T20:30:44.409Z,75.85
2022-11-10T20:32:45.883Z,74.75
2022-11-10T20:34:47.357Z,67.85
2022-11-10T20:36:48.886Z,71.60
2022-11-10T20:38:51.031Z,79.82
2022-11-10T20:41:01.799Z,71.60
2022-11-10T20:43:03.544Z,66.75
2022-11-10T20:45:06.056Z,63.58
2022-11-10T20:47:07.650Z,69.78
2022-11-10T20:49:09.191Z,76.97
2022-11-10T20:51:13.308Z,85.32
2022-11-10T20:53:14.779Z,79.13
2022-11-10T20:55:18.556Z,215.38
2022-11-10T20:57:20.207Z,125.47
2022-11-10T20:59:21.703Z,102.32
2022-11-10T21:01:23.626Z,134.93
2022-11-10T21:03:25.488Z,88.25
2022-11-10T21:05:27.179Z,97.03
2022-11-10T21:07:28.677Z,125.00
2022-11-10T21:09:30.607Z,89.95
2022-11-10T21:11:51.085Z,86.18
2022-11-10T21:13:52.540Z,81.53
2022-11-10T21:15:56.424Z,90.95
2022-11-10T21:17:57.982Z,87.80
2022-11-10T21:19:59.533Z,81.38
2022-11-10T21:22:01.604Z,86.07
2022-11-10T21:24:04.761Z,98.72
2022-11-10T21:26:08.447Z,89.63
2022-11-10T21:28:09.966Z,92.95
2022-11-10T21:30:22.636Z,82.00
2022-11-10T21:32:24.821Z,96.25
2022-11-10T21:34:26.345Z,88.63
2022-11-10T21:36:29.452Z,87.15
2022-11-10T21:38:31.147Z,91.50
2022-11-10T21:40:33.197Z,101.18
2022-11-10T21:42:35.709Z,116.10
2022-11-10T21:44:37.494Z,100.22
2022-11-10T21:46:38.954Z,120.10
2022-11-10T21:48:40.499Z,111.97
2022-11-10T21:50:41.997Z,113.45
2022-11-10T21:52:43.595Z,110.72
2022-11-10T21:54:45.126Z,110.60
2022-11-10T21:56:46.640Z,113.50
2022-11-10T21:58:48.132Z,114.75
2022-11-10T22:00:49.587Z,117.43
2022-11-10T22:02:51.073Z,135.43
2022-11-10T22:04:52.622Z,156.27
2022-11-10T22:07:12.713Z,166.93
2022-11-10T22:09:34.305Z,159.35
2022-11-10T22:11:54.388Z,146.52
2022-11-10T22:14:15.012Z,146.98
2022-11-10T22:16:41.666Z,152.52
2022-11-10T22:18:45.139Z,119.15
2022-11-10T22:20:46.655Z,116.93
2022-11-10T22:22:48.237Z,94.63
2022-11-10T22:24:49.719Z,102.55
2022-11-10T22:26:51.213Z,98.25
2022-11-10T22:28:52.707Z,105.70
2022-11-10T22:30:54.195Z,119.32
2022-11-10T22:32:55.751Z,111.25
2022-11-10T22:34:57.221Z,96.57
2022-11-10T22:36:59.680Z,106.50
2022-11-10T22:39:03.760Z,92.85
2022-11-10T22:41:25.151Z,96.05
2022-11-10T22:43:45.207Z,85.03
2022-11-10T22:45:46.734Z,74.65
2022-11-10T22:48:07.089Z,85.60
2022-11-10T22:50:38.583Z,122.95
2022-11-10T22:52:40.032Z,119.95
2022-11-10T22:54:41.475Z,123.47
2022-11-10T22:56:43.883Z,110.80
2022-11-10T22:58:46.292Z,93.00
2022-11-10T23:00:47.809Z,257.08
2022-11-10T23:02:52.078Z,262.08
2022-11-10T23:04:53.589Z,117.95
2022-11-10T23:06:55.079Z,79.70
2022-11-10T23:08:57.652Z,106.75
2022-11-10T23:11:05.952Z,83.35
2022-11-10T23:13:07.436Z,111.05
2022-11-10T23:15:09.247Z,177.40
2022-11-10T23:17:10.726Z,165.93
2022-11-10T23:19:12.244Z,151.38
2022-11-10T23:21:15.852Z,132.95
2022-11-10T23:23:17.314Z,129.77
2022-11-10T23:25:18.760Z,124.65
2022-11-10T23:27:20.207Z,166.63
2022-11-10T23:29:21.734Z,155.27
2022-11-10T23:31:25.608Z,128.70
2022-11-10T23:33:31.453Z,146.13
2022-11-10T23:35:34.043Z,127.03
2022-11-10T23:37:35.492Z,124.60
2022-11-10T23:39:36.920Z,124.63
2022-11-10T23:41:38.384Z,113.28
2022-11-10T23:43:39.956Z,108.18
2022-11-10T23:46:05.294Z,127.88
2022-11-10T23:48:06.744Z,125.72
2022-11-10T23:50:09.042Z,147.98
2022-11-10T23:52:10.544Z,121.43
2022-11-10T23:54:12.046Z,111.55
2022-11-10T23:56:14.194Z,114.57
2022-11-10T23:58:15.655Z,118.38
